Time;durP1;ratioP1;P1;durP2;ratioP2;P2;SDS_P1;SDS_P2;PMS_P1;PMS_P2;Temp;Humidity;BMP_temperature;BMP_pressure;BME280_temperature;BME280_humidity;BME280_pressure;Samples;Min_cycle;Max_cycle;Signal;HPM_P1;HPM_P2
2023/10/13 00:00:29;;;;;;;66.18;30.25;;;14.20;99.90;;;;;;5131683;27;20063;-76
2023/10/13 00:03:00;;;;;;;63.13;30.70;;;14.20;99.90;;;;;;5131855;27;20092;-78
2023/10/13 00:05:28;;;;;;;62.95;29.65;;;14.30;99.90;;;;;;5131913;27;20046;-78
2023/10/13 00:07:55;;;;;;;72.30;31.50;;;14.30;99.90;;;;;;5130840;27;20112;-78
2023/10/13 00:10:22;;;;;;;72.80;32.05;;;14.40;99.90;;;;;;5131432;27;20047;-78
2023/10/13 00:12:50;;;;;;;69.90;31.13;;;14.40;99.90;;;;;;5131989;27;20051;-77
2023/10/13 00:15:21;;;;;;;69.28;31.20;;;14.50;99.90;;;;;;5130998;27;20051;-78
2023/10/13 00:17:48;;;;;;;62.72;31.25;;;14.50;99.90;;;;;;5131530;27;20043;-78
2023/10/13 00:20:38;;;;;;;64.78;32.05;;;14.60;99.90;;;;;;5131726;27;20120;-78
2023/10/13 00:23:02;;;;;;;60.63;30.25;;;14.70;99.90;;;;;;5131852;27;20065;-76
2023/10/13 00:25:31;;;;;;;54.95;28.05;;;14.60;99.90;;;;;;5119439;27;20047;-78
2023/10/13 00:27:58;;;;;;;60.00;29.58;;;14.70;99.90;;;;;;5132160;27;20498;-77
2023/10/13 00:30:33;;;;;;;52.65;29.13;;;14.70;99.90;;;;;;5131591;27;20051;-76
2023/10/13 00:33:00;;;;;;;53.08;28.00;;;14.90;99.90;;;;;;5112325;27;20043;-77
2023/10/13 00:35:35;;;;;;;57.83;28.67;;;14.80;99.90;;;;;;5111665;28;20051;-77
2023/10/13 00:38:12;;;;;;;49.63;27.50;;;14.80;99.90;;;;;;5124109;27;20433;-78
2023/10/13 00:40:44;;;;;;;52.78;29.05;;;14.90;99.90;;;;;;5112150;28;20094;-77
2023/10/13 00:43:32;;;;;;;51.55;29.02;;;14.90;99.90;;;;;;5111479;28;20062;-78
2023/10/13 00:46:13;;;;;;;48.78;25.85;;;14.90;99.90;;;;;;5130498;27;20050;-77
2023/10/13 00:48:51;;;;;;;;;;;15.00;99.90;;;;;;5131824;27;20488;-76
2023/10/13 00:51:22;;;;;;;46.50;26.45;;;15.10;99.90;;;;;;5147828;27;20367;-77
2023/10/13 00:53:50;;;;;;;43.80;25.73;;;15.10;99.90;;;;;;5131179;27;20054;-78
2023/10/13 00:56:21;;;;;;;54.25;27.25;;;15.20;99.90;;;;;;5130609;27;20548;-78
2023/10/13 00:58:51;;;;;;;49.13;26.33;;;15.20;99.90;;;;;;5131571;28;20051;-78
2023/10/13 01:01:18;;;;;;;53.00;26.63;;;15.20;99.90;;;;;;5130870;28;20039;-78
2023/10/13 01:03:48;;;;;;;49.17;27.55;;;15.20;99.90;;;;;;5130848;28;20051;-77
2023/10/13 01:06:16;;;;;;;49.10;26.73;;;15.30;99.90;;;;;;5131100;28;20054;-78
2023/10/13 01:08:45;;;;;;;46.72;25.58;;;15.30;99.90;;;;;;5130665;28;20131;-76
2023/10/13 01:11:13;;;;;;;50.53;25.58;;;15.40;99.90;;;;;;5130642;28;20451;-77
2023/10/13 01:13:41;;;;;;;45.67;25.67;;;15.40;99.90;;;;;;5130965;28;20484;-77
2023/10/13 01:16:07;;;;;;;50.85;26.80;;;15.40;99.90;;;;;;5130661;28;20075;-78
2023/10/13 01:18:47;;;;;;;53.45;26.45;;;15.50;99.90;;;;;;5132911;27;20474;-78
2023/10/13 01:21:15;;;;;;;44.10;25.92;;;15.50;99.90;;;;;;5134955;27;20047;-77
2023/10/13 01:23:46;;;;;;;49.88;25.45;;;15.50;99.90;;;;;;5135315;27;20093;-76
2023/10/13 01:26:16;;;;;;;43.20;25.25;;;15.60;99.90;;;;;;5134584;27;20059;-77
2023/10/13 01:28:46;;;;;;;48.63;24.98;;;15.60;99.90;;;;;;5135149;27;20047;-77
2023/10/13 01:31:16;;;;;;;;;;;15.60;99.90;;;;;;5116147;27;20055;-77
2023/10/13 01:33:43;;;;;;;46.53;22.77;;;15.70;99.90;;;;;;5115374;27;19920;-78
2023/10/13 01:36:11;;;;;;;43.20;23.73;;;15.70;99.90;;;;;;5115355;28;20047;-78
2023/10/13 01:38:42;;;;;;;36.10;21.67;;;15.70;99.90;;;;;;5114916;27;20053;-78
2023/10/13 01:41:09;;;;;;;;;;;15.70;99.90;;;;;;5115781;27;20165;-77
2023/10/13 01:43:36;;;;;;;35.25;19.75;;;15.80;99.90;;;;;;5115415;27;19923;-77
2023/10/13 01:46:03;;;;;;;37.97;20.42;;;15.80;99.90;;;;;;5115766;27;20449;-77
2023/10/13 01:48:32;;;;;;;36.33;20.15;;;15.80;99.90;;;;;;5115506;27;20048;-78
2023/10/13 01:51:00;;;;;;;38.13;18.63;;;15.90;99.90;;;;;;5114399;28;20495;-77
2023/10/13 01:53:28;;;;;;;38.55;17.90;;;15.90;99.90;;;;;;5113836;28;20047;-79
2023/10/13 01:55:57;;;;;;;29.98;17.63;;;15.90;99.90;;;;;;5114582;28;20457;-78
2023/10/13 01:58:28;;;;;;;29.63;17.42;;;15.90;99.90;;;;;;5114096;28;20046;-79
2023/10/13 02:00:56;;;;;;;28.08;16.05;;;15.90;99.90;;;;;;5113549;28;20132;-78
2023/10/13 02:03:23;;;;;;;30.60;16.75;;;16.00;99.90;;;;;;5114159;28;20040;-78
2023/10/13 02:05:52;;;;;;;29.70;15.05;;;16.00;99.90;;;;;;5114273;28;20059;-78
2023/10/13 02:08:23;;;;;;;31.40;16.40;;;16.00;99.90;;;;;;5113904;28;20036;-79
2023/10/13 02:10:49;;;;;;;30.60;17.38;;;16.00;99.90;;;;;;5112241;28;20058;-78
2023/10/13 02:13:17;;;;;;;26.30;15.45;;;16.00;99.90;;;;;;5114170;28;20078;-78
2023/10/13 02:15:45;;;;;;;23.65;14.60;;;16.00;99.90;;;;;;5114671;28;20499;-78
2023/10/13 02:18:20;;;;;;;22.63;13.10;;;16.10;99.90;;;;;;5113895;28;20071;-78
2023/10/13 02:20:54;;;;;;;31.02;13.65;;;16.10;99.90;;;;;;5113766;28;20434;-78
2023/10/13 02:23:21;;;;;;;25.77;12.57;;;16.10;99.90;;;;;;5114284;28;20479;-77
2023/10/13 02:25:47;;;;;;;24.38;13.18;;;16.10;99.90;;;;;;5114327;28;20070;-76
2023/10/13 02:28:14;;;;;;;18.80;12.20;;;16.10;99.90;;;;;;5113392;28;20070;-76
2023/10/13 02:30:44;;;;;;;22.98;12.50;;;16.10;99.90;;;;;;5111478;28;20047;-77
2023/10/13 02:33:20;;;;;;;21.00;11.53;;;16.10;99.90;;;;;;5114186;28;20051;-78
2023/10/13 02:35:53;;;;;;;21.58;13.25;;;16.20;99.90;;;;;;5113449;28;20047;-79
2023/10/13 02:38:27;;;;;;;19.48;12.32;;;16.20;99.90;;;;;;5113612;28;20043;-77
2023/10/13 02:40:54;;;;;;;22.13;12.73;;;16.20;99.90;;;;;;5113773;28;20051;-76
2023/10/13 02:43:22;;;;;;;21.05;12.30;;;16.20;99.90;;;;;;5113462;28;20399;-79
2023/10/13 02:45:58;;;;;;;17.30;11.40;;;16.20;99.90;;;;;;5113743;28;20491;-80
2023/10/13 02:48:30;;;;;;;20.80;11.15;;;16.20;99.90;;;;;;5113802;28;20043;-80
2023/10/13 02:51:02;;;;;;;16.35;10.90;;;16.20;99.90;;;;;;5112740;28;20059;-80
2023/10/13 02:53:29;;;;;;;20.23;10.02;;;16.20;99.90;;;;;;5113776;28;20047;-80
2023/10/13 02:56:05;;;;;;;16.27;9.88;;;16.20;99.90;;;;;;5113028;28;20048;-80
2023/10/13 02:58:38;;;;;;;15.52;9.98;;;16.20;99.90;;;;;;5113357;28;20063;-80
2023/10/13 03:01:16;;;;;;;17.30;11.05;;;16.20;99.90;;;;;;5114005;28;20079;-79
2023/10/13 03:03:49;;;;;;;16.98;11.38;;;16.20;99.90;;;;;;5113657;28;20097;-80
2023/10/13 03:06:21;;;;;;;20.33;13.38;;;16.20;99.90;;;;;;5113958;28;20445;-80
2023/10/13 03:08:49;;;;;;;20.05;14.15;;;16.30;99.90;;;;;;5113887;28;20461;-80
2023/10/13 03:11:21;;;;;;;26.27;14.73;;;16.30;99.90;;;;;;5114170;28;20043;-80
2023/10/13 03:13:51;;;;;;;24.58;15.90;;;16.30;99.90;;;;;;5113461;28;20179;-80
2023/10/13 03:16:18;;;;;;;28.40;15.98;;;16.30;99.90;;;;;;5113069;28;20051;-80
2023/10/13 03:18:53;;;;;;;30.33;17.88;;;16.30;99.90;;;;;;5112495;28;20092;-77
2023/10/13 03:21:29;;;;;;;28.38;17.83;;;16.30;99.90;;;;;;5111322;28;20495;-77
2023/10/13 03:24:06;;;;;;;25.55;17.33;;;16.30;99.90;;;;;;5111275;28;20550;-76
2023/10/13 03:26:34;;;;;;;29.55;18.50;;;16.30;99.90;;;;;;5111769;28;20086;-76
2023/10/13 03:29:03;;;;;;;30.65;18.58;;;16.30;99.90;;;;;;5110660;28;20048;-76
2023/10/13 03:31:36;;;;;;;32.63;19.00;;;16.30;99.90;;;;;;5112046;28;20055;-76
2023/10/13 03:34:09;;;;;;;36.10;18.88;;;16.30;99.90;;;;;;5112344;28;20563;-73
2023/10/13 03:39:18;;;;;;;34.20;18.60;;;16.30;99.90;;;;;;5109522;28;20380;-73
2023/10/13 03:41:45;;;;;;;27.23;17.05;;;16.30;99.90;;;;;;5110759;28;20048;-74
2023/10/13 03:44:18;;;;;;;28.02;16.80;;;16.30;99.90;;;;;;5108461;28;20047;-74
2023/10/13 03:46:47;;;;;;;23.50;15.20;;;16.30;99.90;;;;;;5123137;27;20482;-73
2023/10/13 03:49:21;;;;;;;23.23;13.88;;;16.30;99.90;;;;;;5111630;28;20082;-73
2023/10/13 03:51:49;;;;;;;16.42;11.80;;;16.30;99.90;;;;;;5126861;27;20094;-74
2023/10/13 03:54:17;;;;;;;18.85;11.95;;;16.30;99.90;;;;;;5122161;27;20039;-72
2023/10/13 03:56:45;;;;;;;18.73;11.98;;;16.30;99.90;;;;;;5114426;27;20459;-74
2023/10/13 03:59:19;;;;;;;20.65;12.23;;;16.30;99.90;;;;;;5113269;27;20077;-74
2023/10/13 04:01:52;;;;;;;19.60;11.30;;;16.20;99.90;;;;;;5113450;27;20055;-74
2023/10/13 04:04:34;;;;;;;24.00;12.68;;;16.30;99.90;;;;;;5126638;27;20051;-75
2023/10/13 04:07:20;;;;;;;16.25;11.98;;;16.30;99.90;;;;;;5115560;27;20044;-74
2023/10/13 04:15:27;;;;;;;21.00;12.77;;;16.20;99.90;;;;;;5055357;28;20041;-74
2023/10/13 04:17:54;;;;;;;18.17;12.15;;;16.20;99.90;;;;;;5123755;27;20483;-74
2023/10/13 04:20:38;;;;;;;17.10;12.48;;;16.20;99.90;;;;;;5115077;27;20825;-74
2023/10/13 04:23:18;;;;;;;17.40;12.02;;;16.20;99.90;;;;;;5114248;27;20075;-74
2023/10/13 04:26:09;;;;;;;18.60;12.27;;;16.30;99.90;;;;;;5122418;27;20372;-74
2023/10/13 04:28:37;;;;;;;19.17;12.43;;;16.30;99.90;;;;;;5115812;27;20134;-75
2023/10/13 04:31:24;;;;;;;19.55;12.35;;;16.30;99.90;;;;;;5112455;27;20040;-75
2023/10/13 04:33:52;;;;;;;19.20;12.30;;;16.30;99.90;;;;;;5113252;27;20050;-75
2023/10/13 04:36:44;;;;;;;18.63;12.32;;;16.30;99.90;;;;;;5114045;27;20047;-74
2023/10/13 04:39:15;;;;;;;19.88;12.27;;;16.30;99.90;;;;;;5114819;27;20505;-73
2023/10/13 04:41:42;;;;;;;;;;;16.20;99.90;;;;;;5123256;27;20050;-75
2023/10/13 04:44:47;;;;;;;21.90;12.05;;;16.30;99.90;;;;;;5112851;27;19923;-74
2023/10/13 04:47:17;;;;;;;22.35;12.63;;;16.30;99.90;;;;;;5121420;27;20071;-75
2023/10/13 04:49:51;;;;;;;21.65;11.88;;;16.30;99.90;;;;;;5114123;27;20062;-73
2023/10/13 04:55:18;;;;;;;21.48;12.88;;;16.30;99.90;;;;;;5126455;27;20443;-74
2023/10/13 04:57:49;;;;;;;18.00;10.82;;;16.30;99.90;;;;;;5117434;27;20077;-73
2023/10/13 05:03:51;;;;;;;19.40;11.63;;;16.30;99.90;;;;;;5119342;27;20137;-74
2023/10/13 05:45:24;;;;;;;12.55;7.68;;;16.00;99.90;;;;;;5114019;27;20388;-75
2023/10/13 05:48:02;;;;;;;9.93;6.13;;;15.90;99.90;;;;;;5120412;27;20062;-74
2023/10/13 06:28:56;;;;;;;8.32;5.40;;;15.70;99.90;;;;;;5135387;27;20516;-72
2023/10/13 06:31:25;;;;;;;7.80;4.93;;;15.70;99.90;;;;;;5117607;27;20047;-72
2023/10/13 06:33:55;;;;;;;6.03;4.40;;;15.70;99.90;;;;;;5117290;27;20546;-71
2023/10/13 06:36:22;;;;;;;6.90;4.80;;;15.70;99.90;;;;;;5130721;27;20049;-71
2023/10/13 06:38:55;;;;;;;5.90;4.55;;;15.70;99.90;;;;;;5137041;27;20100;-72
2023/10/13 06:41:30;;;;;;;6.82;5.38;;;15.70;99.90;;;;;;5136749;27;20462;-73
2023/10/13 06:44:00;;;;;;;7.63;5.18;;;15.70;99.90;;;;;;5137329;27;20444;-73
2023/10/13 06:46:33;;;;;;;8.87;5.87;;;15.70;99.90;;;;;;5136133;27;20503;-73
2023/10/13 06:49:02;;;;;;;8.45;4.82;;;15.70;99.90;;;;;;5116905;27;20494;-73
2023/10/13 06:51:37;;;;;;;7.22;4.03;;;15.70;99.90;;;;;;5117331;27;20051;-73
2023/10/13 06:54:09;;;;;;;5.57;3.75;;;15.80;99.90;;;;;;5124927;27;20509;-74
2023/10/13 06:56:39;;;;;;;4.82;3.83;;;15.90;99.90;;;;;;5121401;27;20050;-74
2023/10/13 06:59:07;;;;;;;5.07;3.53;;;16.00;99.90;;;;;;5130017;27;20034;-74
2023/10/13 07:01:40;;;;;;;6.80;3.55;;;16.00;99.90;;;;;;5124217;27;20047;-74
2023/10/13 07:04:13;;;;;;;5.75;4.00;;;16.10;99.90;;;;;;5116858;27;20047;-73
2023/10/13 07:06:44;;;;;;;6.82;3.83;;;16.10;99.90;;;;;;5117050;27;20090;-73
2023/10/13 07:09:28;;;;;;;7.53;3.85;;;16.20;99.90;;;;;;5116365;27;20039;-73
2023/10/13 07:12:01;;;;;;;8.40;4.20;;;16.20;99.90;;;;;;5133911;27;20051;-73
2023/10/13 07:14:28;;;;;;;8.40;4.22;;;16.20;99.90;;;;;;5136395;27;20066;-74
2023/10/13 07:17:04;;;;;;;9.43;4.13;;;16.10;99.90;;;;;;5135770;27;20042;-73
2023/10/13 07:19:33;;;;;;;7.50;4.72;;;16.10;99.90;;;;;;5116619;27;20047;-74
2023/10/13 07:22:19;;;;;;;7.57;4.20;;;16.10;99.90;;;;;;5120974;27;20051;-73
2023/10/13 07:24:48;;;;;;;11.27;4.07;;;16.10;99.90;;;;;;5125576;27;20047;-73
2023/10/13 07:27:22;;;;;;;8.23;3.95;;;16.10;99.90;;;;;;5145976;27;20047;-73
2023/10/13 07:29:55;;;;;;;9.52;3.92;;;16.10;99.90;;;;;;5129166;27;20122;-72
2023/10/13 07:32:25;;;;;;;11.23;4.40;;;16.10;99.90;;;;;;5127024;27;20547;-72
2023/10/13 07:35:11;;;;;;;12.77;4.60;;;16.00;99.90;;;;;;5124196;27;20131;-73
2023/10/13 07:37:41;;;;;;;10.57;4.90;;;16.00;99.90;;;;;;5126365;27;20069;-72
2023/10/13 07:40:22;;;;;;;11.45;4.60;;;16.00;99.90;;;;;;5118269;27;20046;-71
2023/10/13 07:42:49;;;;;;;12.48;4.57;;;16.00;99.90;;;;;;5134874;27;20122;-71
2023/10/13 07:45:24;;;;;;;11.38;5.00;;;16.00;99.90;;;;;;5115777;27;20494;-73
2023/10/13 07:47:52;;;;;;;8.27;4.47;;;16.00;99.90;;;;;;5134782;27;20088;-72
2023/10/13 07:50:25;;;;;;;9.48;4.75;;;16.00;99.90;;;;;;5115835;27;20132;-74
2023/10/13 07:52:58;;;;;;;11.75;5.18;;;15.90;99.90;;;;;;5115908;27;20130;-73
2023/10/13 07:55:25;;;;;;;9.63;4.80;;;15.90;99.90;;;;;;5116093;27;20465;-73
2023/10/13 07:57:56;;;;;;;9.63;4.38;;;15.90;99.90;;;;;;5116048;27;20497;-72
2023/10/13 08:00:29;;;;;;;11.65;4.95;;;15.90;99.90;;;;;;5115487;27;20058;-72
2023/10/13 08:03:19;;;;;;;11.25;5.22;;;15.90;99.90;;;;;;5116701;27;20092;-72
2023/10/13 08:05:57;;;;;;;7.90;4.50;;;15.90;99.90;;;;;;5134238;27;20049;-72
2023/10/13 08:08:26;;;;;;;9.38;5.25;;;15.90;99.90;;;;;;5135036;27;20125;-73
2023/10/13 08:10:55;;;;;;;11.55;4.90;;;15.90;99.90;;;;;;5120283;27;20094;-73
2023/10/13 08:13:23;;;;;;;12.23;4.82;;;15.90;99.90;;;;;;5118172;27;20125;-73
2023/10/13 08:15:52;;;;;;;10.75;4.65;;;15.90;99.90;;;;;;5117932;27;20467;-73
2023/10/13 08:18:29;;;;;;;8.95;4.55;;;16.00;99.90;;;;;;5134039;27;20092;-73
2023/10/13 08:21:02;;;;;;;10.63;5.22;;;16.00;99.90;;;;;;5131134;27;20046;-72
2023/10/13 08:23:57;;;;;;;12.60;5.70;;;16.00;99.90;;;;;;5115368;27;20043;-72
2023/10/13 08:26:56;;;;;;;12.35;5.05;;;16.10;99.90;;;;;;5129515;27;20123;-72
2023/10/13 08:37:59;;;;;;;14.90;5.68;;;16.20;99.90;;;;;;5052910;28;20413;-72
2023/10/13 08:43:16;;;;;;;11.98;5.22;;;16.20;99.90;;;;;;5077154;27;20067;-70
2023/10/13 08:45:58;;;;;;;12.13;4.78;;;16.30;99.90;;;;;;5134377;27;20047;-72
2023/10/13 08:48:32;;;;;;;13.48;4.90;;;16.40;99.90;;;;;;5133745;27;20043;-73
2023/10/13 08:51:10;;;;;;;13.55;4.93;;;16.40;99.90;;;;;;5133900;27;20038;-73
2023/10/13 08:53:52;;;;;;;14.55;5.20;;;16.50;99.90;;;;;;5134196;27;20047;-72
2023/10/13 08:56:33;;;;;;;10.15;5.15;;;16.50;99.90;;;;;;5118774;27;20410;-72
2023/10/13 08:59:05;;;;;;;8.57;5.03;;;16.50;99.90;;;;;;5114929;27;20425;-71
2023/10/13 09:01:45;;;;;;;13.57;5.18;;;16.60;99.90;;;;;;5130316;27;20114;-72
2023/10/13 09:04:21;;;;;;;9.60;5.30;;;16.70;99.90;;;;;;5132832;27;20145;-72
2023/10/13 09:07:15;;;;;;;11.27;5.60;;;16.80;99.90;;;;;;5134204;27;20435;-72
2023/10/13 09:10:11;;;;;;;12.57;5.93;;;16.80;99.90;;;;;;5133317;27;20075;-72
2023/10/13 09:12:39;;;;;;;10.77;5.38;;;16.90;99.90;;;;;;5121526;27;20047;-72
2023/10/13 09:15:18;;;;;;;12.57;5.90;;;17.00;99.90;;;;;;5116672;27;20051;-72
2023/10/13 09:17:51;;;;;;;15.70;5.63;;;17.10;99.90;;;;;;5121417;27;20495;-71
2023/10/13 09:20:32;;;;;;;13.40;5.57;;;17.20;99.90;;;;;;5132958;27;20047;-72
2023/10/13 09:23:07;;;;;;;10.60;4.65;;;17.40;99.90;;;;;;5131387;27;20469;-71
2023/10/13 09:25:36;;;;;;;11.75;5.13;;;17.50;99.90;;;;;;5123786;27;20075;-71
2023/10/13 09:28:10;;;;;;;15.73;6.38;;;17.60;99.90;;;;;;5122521;27;20049;-71
2023/10/13 09:30:43;;;;;;;12.02;5.20;;;17.70;99.90;;;;;;5123086;27;20119;-72
2023/10/13 09:33:15;;;;;;;11.00;5.05;;;17.80;99.90;;;;;;5122607;27;20051;-72
2023/10/13 09:35:48;;;;;;;8.65;4.88;;;18.00;99.90;;;;;;5136853;27;20118;-72
2023/10/13 09:38:17;;;;;;;12.80;4.93;;;18.00;99.90;;;;;;5116132;27;20043;-71
2023/10/13 09:40:49;;;;;;;11.40;5.03;;;18.00;99.90;;;;;;5123268;27;20047;-72
2023/10/13 09:43:19;;;;;;;10.27;5.15;;;18.10;99.90;;;;;;5128903;27;20050;-72
2023/10/13 09:48:33;;;;;;;11.75;5.30;;;18.20;99.90;;;;;;5133719;27;20043;-72
2023/10/13 09:51:03;;;;;;;10.10;5.45;;;18.20;99.90;;;;;;5122796;27;20174;-72
2023/10/13 09:53:32;;;;;;;13.30;4.88;;;18.20;99.90;;;;;;5128900;27;20535;-71
2023/10/13 09:56:14;;;;;;;10.05;4.45;;;18.40;99.90;;;;;;5126397;27;20075;-71
2023/10/13 09:59:00;;;;;;;10.18;4.88;;;18.60;99.90;;;;;;5127348;27;20510;-71
2023/10/13 10:01:33;;;;;;;9.70;4.53;;;18.80;99.90;;;;;;5124475;27;20485;-73
2023/10/13 10:04:13;;;;;;;12.75;5.38;;;18.90;99.90;;;;;;5127105;27;20066;-72
2023/10/13 10:06:43;;;;;;;9.67;5.00;;;19.00;99.90;;;;;;5127884;27;20035;-72
2023/10/13 10:09:11;;;;;;;7.78;5.05;;;19.00;99.90;;;;;;5126745;27;20277;-72
2023/10/13 10:12:11;;;;;;;8.75;4.53;;;19.00;99.90;;;;;;5125000;27;20452;-72
2023/10/13 10:15:01;;;;;;;9.87;5.17;;;18.90;99.90;;;;;;5119924;27;20100;-72
2023/10/13 10:17:33;;;;;;;10.57;5.03;;;18.80;99.90;;;;;;5126765;27;20103;-72
2023/10/13 10:20:06;;;;;;;11.18;4.80;;;18.80;99.90;;;;;;5123929;27;20039;-72
2023/10/13 10:22:35;;;;;;;13.90;5.15;;;18.90;99.90;;;;;;5127409;27;20103;-72
2023/10/13 10:25:06;;;;;;;11.75;4.80;;;18.90;99.90;;;;;;5128283;27;20422;-72
2023/10/13 10:27:34;;;;;;;11.82;4.00;;;19.00;99.90;;;;;;5123504;27;20107;-73
2023/10/13 10:30:03;;;;;;;12.45;4.95;;;19.00;99.90;;;;;;5126928;27;20490;-73
2023/10/13 10:32:35;;;;;;;16.00;5.18;;;19.10;99.90;;;;;;5124147;27;20045;-73
2023/10/13 10:35:14;;;;;;;15.07;4.90;;;19.20;99.90;;;;;;5117400;27;20078;-73
2023/10/13 10:37:46;;;;;;;7.78;3.92;;;19.40;99.90;;;;;;5135174;27;20042;-72
2023/10/13 10:40:41;;;;;;;15.20;5.05;;;19.50;99.90;;;;;;5135905;27;20045;-73
2023/10/13 10:43:08;;;;;;;10.07;5.90;;;19.60;99.90;;;;;;5136444;27;20054;-73
2023/10/13 10:45:43;;;;;;;9.50;4.32;;;19.70;99.90;;;;;;5118393;27;20490;-73
2023/10/13 10:48:17;;;;;;;13.55;4.88;;;19.70;99.90;;;;;;5115787;27;20542;-73
2023/10/13 10:50:47;;;;;;;14.82;4.75;;;19.80;99.90;;;;;;5119476;27;20503;-72
2023/10/13 10:53:14;;;;;;;9.80;4.32;;;19.80;99.90;;;;;;5146719;27;20129;-73
2023/10/13 10:55:42;;;;;;;18.00;5.00;;;19.80;99.90;;;;;;5123419;27;20047;-73
2023/10/13 10:58:28;;;;;;;8.05;4.28;;;19.80;99.90;;;;;;5115997;27;20043;-73
2023/10/13 11:01:10;;;;;;;12.57;4.68;;;19.80;99.90;;;;;;5116455;27;20130;-72
2023/10/13 11:03:41;;;;;;;10.18;3.95;;;20.20;99.90;;;;;;5118441;27;20104;-74
2023/10/13 11:06:17;;;;;;;10.05;4.35;;;20.50;99.90;;;;;;5118302;27;20059;-72
2023/10/13 11:08:51;;;;;;;16.17;4.72;;;20.90;99.90;;;;;;5131344;27;20066;-73
2023/10/13 11:11:30;;;;;;;9.73;4.60;;;21.10;99.90;;;;;;5117608;27;20061;-74
2023/10/13 11:14:13;;;;;;;16.92;5.93;;;21.00;99.90;;;;;;5137551;27;20043;-73
2023/10/13 11:16:50;;;;;;;17.77;5.05;;;20.90;99.90;;;;;;5132030;27;20047;-72
2023/10/13 11:19:20;;;;;;;13.05;4.38;;;20.80;99.90;;;;;;5126796;27;20100;-73
2023/10/13 11:21:49;;;;;;;11.60;4.68;;;20.70;99.90;;;;;;5119030;27;20047;-73
2023/10/13 11:24:17;;;;;;;13.03;4.93;;;20.70;99.90;;;;;;5115799;27;20039;-73
2023/10/13 11:26:50;;;;;;;14.45;4.75;;;20.40;99.90;;;;;;5124238;27;20046;-74
2023/10/13 11:29:19;;;;;;;15.30;4.65;;;20.30;99.90;;;;;;5124498;27;20078;-73
2023/10/13 11:31:50;;;;;;;16.33;5.32;;;20.30;99.90;;;;;;5123188;27;20157;-72
2023/10/13 11:34:17;;;;;;;12.50;4.70;;;20.30;99.90;;;;;;5141676;27;20050;-72
2023/10/13 11:36:44;;;;;;;11.10;4.32;;;20.40;99.90;;;;;;5134607;27;20038;-73
2023/10/13 11:39:17;;;;;;;15.75;5.32;;;20.40;99.90;;;;;;5118698;27;20051;-73
2023/10/13 11:41:53;;;;;;;12.88;5.57;;;20.40;99.90;;;;;;5128936;27;20490;-73
2023/10/13 11:44:31;;;;;;;11.95;5.20;;;20.30;99.90;;;;;;5121813;27;20051;-73
2023/10/13 11:47:16;;;;;;;12.48;4.78;;;20.00;99.90;;;;;;5115776;27;20103;-73
2023/10/13 11:49:44;;;;;;;9.98;4.85;;;19.50;99.90;;;;;;5117806;27;20063;-73
2023/10/13 11:52:19;;;;;;;15.60;5.22;;;18.90;99.90;;;;;;5116828;27;20047;-73
2023/10/13 11:54:47;;;;;;;16.65;6.05;;;18.70;99.90;;;;;;5117722;27;20150;-73
2023/10/13 11:57:19;;;;;;;11.88;5.05;;;18.60;99.90;;;;;;5118137;27;20074;-73
2023/10/13 11:59:55;;;;;;;11.95;5.63;;;18.60;99.90;;;;;;5117377;27;20096;-72
2023/10/13 12:05:12;;;;;;;11.95;5.50;;;18.50;99.90;;;;;;5115023;27;20050;-73
2023/10/13 12:07:51;;;;;;;13.95;5.32;;;18.50;99.90;;;;;;5118161;27;20111;-72
2023/10/13 12:10:49;;;;;;;15.55;5.03;;;18.50;99.90;;;;;;5117212;27;20144;-73
2023/10/13 12:13:17;;;;;;;12.57;5.05;;;18.60;99.90;;;;;;5128239;27;20051;-73
2023/10/13 12:15:52;;;;;;;13.60;5.38;;;18.80;99.90;;;;;;5128325;27;20086;-72
2023/10/13 12:18:21;;;;;;;15.02;5.90;;;18.90;99.90;;;;;;5123513;27;20043;-73
2023/10/13 12:20:49;;;;;;;19.15;5.40;;;19.00;99.90;;;;;;5117904;27;20967;-73
2023/10/13 12:23:17;;;;;;;13.00;5.05;;;19.10;99.90;;;;;;5115198;27;20055;-72
2023/10/13 12:26:00;;;;;;;20.77;5.68;;;19.20;99.90;;;;;;5119437;27;21245;-72
2023/10/13 12:28:31;;;;;;;13.88;5.32;;;19.20;99.90;;;;;;5118010;27;20066;-72
2023/10/13 12:31:03;;;;;;;;;;;19.40;99.90;;;;;;5119332;27;20045;-73
2023/10/13 12:33:36;;;;;;;14.13;4.97;;;19.50;99.90;;;;;;5128544;27;19923;-72
2023/10/13 12:36:06;;;;;;;15.68;5.65;;;19.50;99.90;;;;;;5124862;27;20062;-72
2023/10/13 12:38:50;;;;;;;14.25;6.05;;;19.50;99.90;;;;;;5132067;27;20047;-72
2023/10/13 12:49:49;;;;;;;14.70;6.32;;;19.10;99.90;;;;;;5116324;27;20050;-72
2023/10/13 12:52:20;;;;;;;15.75;6.65;;;19.10;99.90;;;;;;5118431;27;20042;-73
2023/10/13 12:54:58;;;;;;;21.42;6.43;;;19.00;99.90;;;;;;5119245;27;20059;-72
2023/10/13 12:57:25;;;;;;;13.73;5.82;;;19.00;99.90;;;;;;5126085;27;20057;-73
2023/10/13 12:59:54;;;;;;;12.82;5.65;;;19.00;99.90;;;;;;5117038;27;20073;-72
2023/10/13 13:02:21;;;;;;;15.85;5.70;;;19.00;99.90;;;;;;5114513;27;20115;-72
2023/10/13 13:04:54;;;;;;;17.67;6.90;;;18.90;99.90;;;;;;5120985;27;20046;-73
2023/10/13 13:07:21;;;;;;;14.75;6.70;;;18.80;99.90;;;;;;5123585;27;20057;-72
2023/10/13 13:09:48;;;;;;;11.95;6.50;;;18.60;99.90;;;;;;5117473;27;20061;-73
2023/10/13 13:12:15;;;;;;;15.95;6.93;;;18.50;99.90;;;;;;5122526;27;20122;-74
2023/10/13 13:14:45;;;;;;;17.38;7.45;;;18.40;99.90;;;;;;5122836;27;20471;-73
2023/10/13 13:17:14;;;;;;;14.65;6.57;;;18.30;99.90;;;;;;5127205;27;20450;-74
2023/10/13 13:19:41;;;;;;;19.30;7.35;;;18.20;99.90;;;;;;5131755;27;20039;-73
2023/10/13 13:22:11;;;;;;;20.42;7.78;;;18.10;99.90;;;;;;5118631;27;20797;-73
2023/10/13 13:24:43;;;;;;;;;;;18.00;99.90;;;;;;5126676;27;20047;-72
2023/10/13 13:27:13;;;;;;;14.40;7.43;;;18.00;99.90;;;;;;5124327;27;19923;-72
2023/10/13 13:29:41;;;;;;;17.00;7.72;;;18.00;99.90;;;;;;5145483;27;20091;-72
2023/10/13 13:32:17;;;;;;;14.20;7.03;;;18.00;99.90;;;;;;5128091;27;20043;-72
2023/10/13 13:34:54;;;;;;;13.98;6.95;;;17.90;99.90;;;;;;5123622;27;20061;-72
2023/10/13 13:37:21;;;;;;;15.63;7.00;;;17.90;99.90;;;;;;5126116;27;20047;-73
2023/10/13 13:39:48;;;;;;;23.58;8.27;;;17.90;99.90;;;;;;5119678;27;20066;-72
2023/10/13 13:42:17;;;;;;;20.92;7.68;;;17.90;99.90;;;;;;5121006;27;20043;-72
2023/10/13 13:44:46;;;;;;;17.40;7.68;;;17.80;99.90;;;;;;5119210;27;20051;-72
2023/10/13 13:47:13;;;;;;;21.83;7.80;;;17.90;99.90;;;;;;5120771;27;20075;-71
2023/10/13 13:49:40;;;;;;;13.70;7.32;;;17.90;99.90;;;;;;5138594;27;20096;-72
2023/10/13 13:52:09;;;;;;;14.45;6.53;;;17.90;99.90;;;;;;5119333;27;20050;-72
2023/10/13 13:54:40;;;;;;;15.68;6.60;;;18.00;99.90;;;;;;5135047;27;20073;-72
2023/10/13 13:57:07;;;;;;;18.27;6.88;;;18.00;99.90;;;;;;5137586;27;21528;-72
2023/10/13 13:59:35;;;;;;;13.57;6.72;;;18.00;99.90;;;;;;5123805;27;20039;-71
2023/10/13 14:02:06;;;;;;;16.27;6.57;;;18.10;99.90;;;;;;5119544;27;20096;-71
2023/10/13 14:04:34;;;;;;;15.30;7.50;;;18.00;99.90;;;;;;5115169;27;20043;-72
2023/10/13 14:07:06;;;;;;;17.77;6.95;;;18.00;99.90;;;;;;5116419;27;20051;-71
2023/10/13 14:09:40;;;;;;;19.85;6.97;;;18.10;99.90;;;;;;5119390;27;20062;-72
2023/10/13 14:14:55;;;;;;;17.67;8.07;;;18.20;99.90;;;;;;5144195;27;20046;-71
2023/10/13 14:17:28;;;;;;;22.63;6.85;;;18.40;99.90;;;;;;5137393;27;20039;-72
2023/10/13 14:19:56;;;;;;;15.90;6.40;;;18.40;99.90;;;;;;5137105;27;20134;-71
2023/10/13 14:22:25;;;;;;;15.52;7.40;;;18.50;99.90;;;;;;5132243;27;20100;-72
2023/10/13 14:24:55;;;;;;;17.52;7.70;;;18.50;99.90;;;;;;5117680;27;20070;-72
2023/10/13 14:27:23;;;;;;;;;;;18.50;99.90;;;;;;5127788;27;20498;-71
2023/10/13 14:29:52;;;;;;;14.10;6.10;;;18.50;99.90;;;;;;5125871;27;19926;-72
2023/10/13 14:32:24;;;;;;;14.50;6.20;;;18.60;99.90;;;;;;5132561;27;20115;-71
2023/10/13 14:34:56;;;;;;;20.90;6.55;;;18.60;99.90;;;;;;5137052;27;20420;-71
2023/10/13 14:37:28;;;;;;;12.50;6.50;;;18.60;99.90;;;;;;5120486;27;20971;-71
2023/10/13 14:39:57;;;;;;;14.88;6.65;;;18.60;99.90;;;;;;5116690;27;20035;-71
2023/10/13 14:42:25;;;;;;;15.63;7.10;;;18.60;99.90;;;;;;5117517;27;20051;-71
2023/10/13 14:44:56;;;;;;;15.85;7.15;;;18.60;99.90;;;;;;5121487;27;20046;-70
2023/10/13 14:47:24;;;;;;;10.88;5.95;;;18.60;99.90;;;;;;5127080;27;20070;-71
2023/10/13 14:49:54;;;;;;;12.98;6.43;;;18.60;99.90;;;;;;5132017;27;20108;-72
2023/10/13 14:52:22;;;;;;;18.55;7.10;;;18.60;99.90;;;;;;5136593;27;20535;-68
2023/10/13 14:54:54;;;;;;;12.45;6.70;;;18.50;99.90;;;;;;5122052;27;20127;-72
2023/10/13 14:57:25;;;;;;;15.40;6.18;;;18.60;99.90;;;;;;5124957;27;20073;-71
2023/10/13 14:59:53;;;;;;;17.38;6.63;;;18.50;99.90;;;;;;5116943;27;20043;-71
2023/10/13 15:02:20;;;;;;;19.05;6.75;;;18.50;99.90;;;;;;5137565;27;20054;-71